createdAt,value
2023-03-06T00:01:36.138Z,100007.38
2023-03-06T00:04:08.349Z,100063.25
2023-03-06T00:06:38.511Z,100084.00
2023-03-06T00:09:09.376Z,100159.25
2023-03-06T00:11:44.603Z,99954.94
2023-03-06T00:14:14.798Z,100117.59
2023-03-06T00:16:44.911Z,99956.38
2023-03-06T00:19:14.954Z,100088.25
2023-03-06T00:21:45.237Z,99945.72
2023-03-06T00:24:15.234Z,99889.72
2023-03-06T00:26:51.309Z,99872.53
2023-03-06T00:29:27.235Z,100149.09
2023-03-06T00:32:05.410Z,100027.69
2023-03-06T00:34:37.196Z,100150.41
2023-03-06T00:37:07.416Z,99946.91
2023-03-06T00:39:37.656Z,100048.25
2023-03-06T00:42:10.598Z,100147.63
2023-03-06T00:44:41.764Z,99926.97
2023-03-06T00:47:12.397Z,99936.97
2023-03-06T00:49:45.618Z,100062.28
2023-03-06T00:52:23.043Z,100065.34
2023-03-06T00:55:00.652Z,99904.16
2023-03-06T00:57:37.036Z,100078.25
2023-03-06T01:00:17.791Z,99790.59
2023-03-06T01:02:59.142Z,100133.22
2023-03-06T01:06:09.701Z,99924.84
2023-03-06T01:09:23.031Z,100107.44
2023-03-06T01:12:23.293Z,99915.91
2023-03-06T01:15:28.442Z,99922.09
2023-03-06T01:18:54.088Z,99904.44
2023-03-06T01:21:29.112Z,99917.28
2023-03-06T01:23:59.984Z,99868.47
2023-03-06T01:26:52.979Z,100082.91
2023-03-06T01:29:59.082Z,100084.78
2023-03-06T01:33:32.894Z,99836.09
2023-03-06T01:36:13.565Z,100062.50
2023-03-06T01:38:43.465Z,100028.25
2023-03-06T01:41:16.019Z,100062.81
2023-03-06T01:43:48.573Z,99903.47
2023-03-06T01:46:38.141Z,99981.50
2023-03-06T01:49:18.106Z,99990.66
2023-03-06T01:51:53.205Z,99916.00
2023-03-06T01:54:28.348Z,99943.19
2023-03-06T01:57:04.027Z,99902.78
2023-03-06T01:59:36.612Z,100084.09
2023-03-06T02:02:09.308Z,99844.59
2023-03-06T02:04:44.354Z,99937.13
2023-03-06T02:07:14.848Z,100053.13
2023-03-06T02:09:44.888Z,99863.94
2023-03-06T02:12:17.285Z,99796.03
2023-03-06T02:14:48.251Z,99989.66
2023-03-06T02:17:21.077Z,99820.03
2023-03-06T02:20:01.401Z,99976.22
2023-03-06T02:22:38.783Z,99894.22
2023-03-06T02:25:17.155Z,99894.16
2023-03-06T02:27:50.964Z,100052.06
2023-03-06T02:30:22.014Z,99977.31
2023-03-06T02:32:52.044Z,99938.97
2023-03-06T02:35:23.202Z,99984.38
2023-03-06T02:37:53.280Z,99858.47
2023-03-06T02:40:24.922Z,99757.78
2023-03-06T02:43:00.584Z,99869.56
2023-03-06T02:45:38.410Z,99915.44
2023-03-06T02:48:09.494Z,99959.97
2023-03-06T02:50:39.295Z,99784.63
2023-03-06T02:53:10.188Z,99871.81
2023-03-06T02:55:40.768Z,99838.94
2023-03-06T02:58:13.557Z,100002.94
2023-03-06T03:00:43.600Z,99918.88
2023-03-06T03:03:13.490Z,99777.94
2023-03-06T03:05:43.375Z,99796.09
2023-03-06T03:08:19.860Z,99697.78
2023-03-06T03:10:51.171Z,99884.41
2023-03-06T03:13:23.836Z,99958.13
2023-03-06T03:16:01.507Z,99950.00
2023-03-06T03:18:31.697Z,99925.06
2023-03-06T03:21:01.852Z,99743.81
2023-03-06T03:23:31.683Z,99689.09
2023-03-06T03:26:09.145Z,99967.56
2023-03-06T03:28:44.037Z,99909.91
2023-03-06T03:31:16.768Z,99912.47
2023-03-06T03:33:47.338Z,99924.28
2023-03-06T03:36:17.425Z,99885.22
2023-03-06T03:38:49.859Z,99952.16
2023-03-06T03:41:20.743Z,99625.69
2023-03-06T03:44:02.725Z,99721.91
2023-03-06T03:46:42.822Z,99970.28
2023-03-06T03:49:21.361Z,99956.59
2023-03-06T03:51:51.777Z,99923.19
2023-03-06T03:54:23.436Z,99831.69
2023-03-06T03:56:55.674Z,99928.59
2023-03-06T03:59:35.037Z,99916.56
2023-03-06T04:02:30.596Z,99841.75
2023-03-06T04:05:08.790Z,99919.47
2023-03-06T04:07:38.673Z,99871.81
2023-03-06T04:10:10.084Z,99911.19
2023-03-06T04:12:40.367Z,99926.69
2023-03-06T04:15:13.996Z,99925.19
2023-03-06T04:17:44.488Z,99903.59
2023-03-06T04:20:18.395Z,99915.06
2023-03-06T04:22:49.754Z,99829.63
2023-03-06T04:25:20.487Z,99897.44
2023-03-06T04:27:50.295Z,99901.59
2023-03-06T04:30:24.782Z,99913.50
2023-03-06T04:32:54.784Z,99911.81
2023-03-06T04:35:24.527Z,99881.13
2023-03-06T04:38:01.190Z,99896.69
2023-03-06T04:40:34.711Z,99903.75
2023-03-06T04:43:04.954Z,99897.44
2023-03-06T04:45:37.656Z,99907.72
2023-03-06T04:48:07.890Z,99896.84
2023-03-06T04:50:38.244Z,99901.03
2023-03-06T04:53:08.729Z,99896.13
2023-03-06T04:55:38.421Z,99897.53
2023-03-06T04:58:08.192Z,99882.28
2023-03-06T05:00:40.490Z,99867.44
2023-03-06T05:03:11.278Z,99872.63
2023-03-06T05:05:40.919Z,99875.00
2023-03-06T05:08:11.085Z,99860.34
2023-03-06T05:10:40.692Z,99873.91
2023-03-06T05:13:10.348Z,99887.78
2023-03-06T05:15:43.199Z,99879.53
2023-03-06T05:18:12.864Z,99884.28
2023-03-06T05:20:42.528Z,99878.88
2023-03-06T05:23:12.178Z,99841.75
2023-03-06T05:25:42.745Z,99863.88
2023-03-06T05:28:12.391Z,99881.56
2023-03-06T05:30:44.582Z,99827.84
2023-03-06T05:33:14.221Z,99877.00
2023-03-06T05:35:47.995Z,99847.00
2023-03-06T05:38:18.175Z,99881.78
2023-03-06T05:40:48.409Z,99859.78
2023-03-06T05:43:18.027Z,99873.91
2023-03-06T05:45:50.591Z,99841.56
2023-03-06T05:48:20.316Z,99871.25
2023-03-06T05:50:57.860Z,99865.69
2023-03-06T05:53:28.103Z,99872.25
2023-03-06T05:56:02.182Z,99867.28
2023-03-06T05:58:32.999Z,99873.97
2023-03-06T06:01:11.676Z,99849.03
2023-03-06T06:03:41.394Z,99869.00
2023-03-06T06:06:13.211Z,99866.00
2023-03-06T06:08:43.777Z,99864.94
2023-03-06T06:11:14.684Z,99848.63
2023-03-06T06:13:44.512Z,99830.72
2023-03-06T06:16:19.641Z,99823.34
2023-03-06T06:18:49.489Z,99851.97
2023-03-06T06:21:19.095Z,99832.88
2023-03-06T06:23:48.684Z,99853.97
2023-03-06T06:26:18.432Z,99860.88
2023-03-06T06:28:48.059Z,99847.28
2023-03-06T06:31:20.334Z,99829.53
2023-03-06T06:33:49.954Z,99852.66
2023-03-06T06:36:20.146Z,99839.94
2023-03-06T06:38:50.611Z,99836.94
2023-03-06T06:41:42.623Z,99849.28
2023-03-06T06:44:12.589Z,99837.53
2023-03-06T06:49:35.428Z,99775.31
2023-03-06T06:52:05.230Z,99846.53
2023-03-06T06:54:35.209Z,99845.84
2023-03-06T06:57:04.945Z,99789.00
2023-03-06T06:59:34.598Z,99831.19
2023-03-06T07:02:07.260Z,99839.28
2023-03-06T07:04:36.908Z,99845.72
2023-03-06T07:07:06.531Z,99847.03
2023-03-06T07:09:36.164Z,99851.44
2023-03-06T07:12:05.802Z,99840.34
2023-03-06T07:14:35.443Z,99840.69
2023-03-06T07:17:07.723Z,99836.00
2023-03-06T07:19:38.606Z,99849.91
2023-03-06T07:22:08.510Z,99845.59
2023-03-06T07:24:38.313Z,99854.31
2023-03-06T07:27:08.028Z,99861.88
2023-03-06T07:29:37.888Z,99850.19
2023-03-06T07:32:10.173Z,99858.69
2023-03-06T07:34:39.968Z,99842.34
2023-03-06T07:37:09.592Z,99841.41
2023-03-06T07:39:39.443Z,99856.25
2023-03-06T07:42:09.521Z,99858.69
2023-03-06T07:44:44.948Z,99823.09
2023-03-06T07:47:17.531Z,99853.44
2023-03-06T07:49:47.184Z,99852.50
2023-03-06T07:52:17.111Z,99821.00
2023-03-06T07:54:46.730Z,99821.72
2023-03-06T07:57:16.405Z,99831.72
2023-03-06T07:59:46.020Z,99863.16
2023-03-06T08:02:18.188Z,99860.00
2023-03-06T08:04:47.797Z,99864.59
2023-03-06T08:07:17.380Z,99868.28
2023-03-06T08:09:46.997Z,99854.47
2023-03-06T08:12:16.764Z,99865.91
2023-03-06T08:14:46.381Z,99830.91
2023-03-06T08:17:18.628Z,99801.91
2023-03-06T08:19:48.283Z,99860.16
2023-03-06T08:22:17.893Z,99836.72
2023-03-06T08:24:47.483Z,99874.59
2023-03-06T08:27:17.062Z,99852.59
2023-03-06T08:29:46.668Z,99870.16
2023-03-06T08:32:18.938Z,99865.03
2023-03-06T08:34:48.580Z,99878.81
2023-03-06T08:37:18.264Z,99879.38
2023-03-06T08:39:48.346Z,99853.34
2023-03-06T08:42:18.467Z,99878.03
2023-03-06T08:44:48.143Z,99880.03
2023-03-06T08:47:21.439Z,99883.72
2023-03-06T08:49:51.052Z,99879.16
2023-03-06T08:52:20.630Z,99858.72
2023-03-06T08:54:50.231Z,99874.78
2023-03-06T08:57:19.828Z,99886.03
2023-03-06T08:59:49.414Z,99896.69
2023-03-06T09:02:21.612Z,99902.66
2023-03-06T09:04:51.254Z,99900.81
2023-03-06T09:07:20.839Z,99900.13
2023-03-06T09:09:50.463Z,99897.38
2023-03-06T09:12:20.099Z,99911.00
2023-03-06T09:14:49.730Z,99905.72
2023-03-06T09:17:21.962Z,99903.19
2023-03-06T09:19:52.492Z,99916.50
2023-03-06T09:22:22.106Z,99925.06
2023-03-06T09:24:52.172Z,99928.59
2023-03-06T09:27:22.850Z,99893.00
2023-03-06T09:29:52.520Z,99909.47
2023-03-06T09:32:25.746Z,99928.19
2023-03-06T09:34:55.424Z,99925.88
2023-03-06T09:37:25.177Z,99913.81
2023-03-06T09:39:54.819Z,99925.88
2023-03-06T09:42:26.001Z,99920.91
2023-03-06T09:44:58.802Z,99906.13
2023-03-06T09:47:43.621Z,99915.47
2023-03-06T09:50:24.728Z,99879.75
2023-03-06T09:53:06.976Z,99916.97
2023-03-06T09:55:40.793Z,99886.56
2023-03-06T09:58:16.926Z,99926.09
2023-03-06T10:00:52.896Z,99836.09
2023-03-06T10:03:29.847Z,99924.44
2023-03-06T10:06:04.622Z,99897.75
2023-03-06T10:08:46.346Z,99881.34
2023-03-06T10:11:21.181Z,99897.72
2023-03-06T10:13:57.525Z,99916.84
2023-03-06T10:16:30.476Z,99918.72
2023-03-06T10:19:05.223Z,99920.94
2023-03-06T10:21:48.513Z,99916.09
2023-03-06T10:24:27.786Z,99913.56
2023-03-06T10:27:06.028Z,99909.22
2023-03-06T10:30:01.289Z,99910.25
2023-03-06T10:32:48.251Z,99903.28
2023-03-06T10:35:25.699Z,99899.97
2023-03-06T10:38:02.866Z,99910.72
2023-03-06T10:40:43.554Z,99918.59
2023-03-06T10:43:13.916Z,99870.66
2023-03-06T10:45:55.026Z,99865.13
2023-03-06T10:48:27.420Z,99897.03
2023-03-06T10:51:18.581Z,99912.66
2023-03-06T10:53:54.592Z,99930.69
2023-03-06T10:56:32.408Z,99928.16
2023-03-06T10:59:10.498Z,99933.03
2023-03-06T11:01:40.568Z,99930.22
2023-03-06T11:04:19.294Z,99920.66
2023-03-06T11:06:51.706Z,99926.03
2023-03-06T11:09:25.434Z,99918.91
2023-03-06T11:11:55.642Z,99944.38
2023-03-06T11:14:27.594Z,99940.03
2023-03-06T11:16:57.622Z,99866.94
2023-03-06T11:19:33.093Z,99867.47
2023-03-06T11:22:09.877Z,99938.03
2023-03-06T11:24:44.402Z,99925.97
2023-03-06T11:27:25.145Z,99942.66
2023-03-06T11:29:57.956Z,99898.97
2023-03-06T11:32:32.385Z,99867.06
2023-03-06T11:35:07.353Z,99938.09
2023-03-06T11:37:48.740Z,99944.47
2023-03-06T11:40:25.679Z,99918.88
2023-03-06T11:43:02.878Z,99909.91
2023-03-06T11:45:38.976Z,99923.72
2023-03-06T11:48:24.675Z,99873.59
2023-03-06T11:50:56.252Z,99923.31
2023-03-06T11:53:35.204Z,99917.31
2023-03-06T11:56:14.673Z,99871.06
2023-03-06T11:59:03.635Z,99889.50
2023-03-06T12:01:38.338Z,99926.06
2023-03-06T12:04:36.633Z,99919.66
2023-03-06T12:07:20.398Z,99877.56
2023-03-06T12:09:58.498Z,99921.13
2023-03-06T12:12:53.068Z,99908.22
2023-03-06T12:15:30.407Z,99900.84
2023-03-06T12:18:22.037Z,99895.19
2023-03-06T12:21:01.348Z,99921.00
2023-03-06T12:23:50.671Z,99864.81
2023-03-06T12:26:51.333Z,99894.03
2023-03-06T12:29:50.296Z,99918.84
2023-03-06T12:32:35.305Z,99907.03
2023-03-06T12:35:17.419Z,99895.66
2023-03-06T12:37:59.438Z,99897.63
2023-03-06T12:40:59.758Z,99871.91
2023-03-06T12:43:57.171Z,99898.13
2023-03-06T12:46:28.556Z,99898.22
2023-03-06T12:49:05.637Z,99868.22
2023-03-06T12:51:36.178Z,99883.69
2023-03-06T12:54:06.167Z,99890.94
2023-03-06T12:56:37.193Z,99869.03
2023-03-06T12:59:09.615Z,99883.00
2023-03-06T13:09:26.575Z,99879.56
2023-03-06T13:16:24.803Z,99555.28
2023-03-06T13:22:52.472Z,99881.22
2023-03-06T13:26:00.314Z,99759.78
2023-03-06T13:29:05.001Z,99693.38
2023-03-06T14:01:09.804Z,99702.84
2023-03-06T14:04:34.063Z,99688.03
2023-03-06T14:07:42.574Z,99783.09
2023-03-06T14:10:36.368Z,99774.03
2023-03-06T14:17:36.978Z,99531.06
2023-03-06T14:32:17.032Z,99565.66
2023-03-06T14:39:51.376Z,99641.75
2023-03-06T14:43:39.873Z,99800.88
2023-03-06T14:46:53.088Z,99640.94
2023-03-06T14:49:59.248Z,99810.22
2023-03-06T14:53:15.857Z,99615.31
2023-03-06T14:56:55.213Z,99819.44
2023-03-06T15:08:39.228Z,99505.69
2023-03-06T15:19:16.392Z,99484.34
2023-03-06T15:22:23.640Z,99809.38
2023-03-06T15:25:35.830Z,99711.31
2023-03-06T15:28:44.688Z,99586.91
2023-03-06T15:31:58.858Z,99776.16
2023-03-06T16:43:43.396Z,99579.63
2023-03-06T16:46:32.852Z,99762.44
2023-03-06T16:49:16.890Z,99764.22
2023-03-06T16:51:56.100Z,99585.44
2023-03-06T16:54:31.929Z,99418.44
2023-03-06T16:57:08.588Z,99737.59
2023-03-06T16:59:44.084Z,99662.31
2023-03-06T17:02:17.086Z,99412.25
2023-03-06T17:04:53.031Z,99689.88
2023-03-06T17:07:25.448Z,99425.25
2023-03-06T17:10:07.292Z,99667.81
2023-03-06T17:12:41.468Z,99534.91
2023-03-06T17:15:40.666Z,99611.34
2023-03-06T17:18:10.960Z,99507.28
2023-03-06T17:20:46.239Z,99549.03
2023-03-06T17:23:25.410Z,99762.00
2023-03-06T17:26:13.208Z,99471.69
2023-03-06T17:28:45.927Z,99642.88
2023-03-06T17:31:32.136Z,99662.72
2023-03-06T17:34:04.766Z,99700.19
2023-03-06T17:36:37.520Z,99405.03
2023-03-06T17:39:11.042Z,99546.34
2023-03-06T17:41:41.693Z,99592.63
2023-03-06T17:44:17.867Z,99652.91
2023-03-06T17:46:51.033Z,99693.75
2023-03-06T17:49:23.320Z,99545.56
2023-03-06T17:51:53.137Z,99714.22
2023-03-06T17:54:23.055Z,99628.69
2023-03-06T17:56:52.911Z,99709.19
2023-03-06T17:59:22.569Z,99688.19
2023-03-06T18:01:54.840Z,99694.78
2023-03-06T18:04:24.615Z,99720.34
2023-03-06T18:06:57.489Z,99712.69
2023-03-06T18:09:27.289Z,99638.06
2023-03-06T18:11:57.046Z,99694.59
2023-03-06T18:14:26.958Z,99697.25
2023-03-06T18:16:59.231Z,99709.25
2023-03-06T18:19:29.001Z,99706.41
2023-03-06T18:22:00.546Z,99705.09
2023-03-06T18:24:30.481Z,99693.41
2023-03-06T18:27:00.135Z,99674.63
2023-03-06T18:29:29.872Z,99681.94
2023-03-06T18:32:03.072Z,99653.13
2023-03-06T18:34:32.831Z,99688.03
2023-03-06T18:37:02.476Z,99668.06
2023-03-06T18:39:32.302Z,99654.34
2023-03-06T18:42:01.994Z,99675.09
2023-03-06T18:44:32.044Z,99670.84
2023-03-06T18:47:04.443Z,99640.38
2023-03-06T18:49:34.216Z,99625.50
2023-03-06T18:52:03.849Z,99660.16
2023-03-06T18:54:33.832Z,99671.59
2023-03-06T18:57:03.587Z,99636.97
2023-03-06T18:59:33.412Z,99633.41
2023-03-06T19:02:05.948Z,99634.53
2023-03-06T19:04:35.623Z,99655.47
2023-03-06T19:07:05.272Z,99636.28
2023-03-06T19:09:34.918Z,99615.47
2023-03-06T19:12:05.297Z,99618.66
2023-03-06T19:14:36.361Z,99657.34
2023-03-06T19:17:08.658Z,99621.75
2023-03-06T19:19:38.358Z,99642.31
2023-03-06T19:22:08.047Z,99647.06
2023-03-06T19:24:38.684Z,99629.44
2023-03-06T19:27:08.312Z,99614.19
2023-03-06T19:29:38.623Z,99612.94
2023-03-06T19:32:11.148Z,99612.94
2023-03-06T19:34:40.837Z,99628.22
2023-03-06T19:37:10.778Z,99609.31
2023-03-06T19:39:40.364Z,99613.16
2023-03-06T19:42:11.725Z,99621.03
2023-03-06T19:44:43.070Z,99611.50
2023-03-06T19:47:15.463Z,99619.88
2023-03-06T19:49:45.072Z,99608.59
2023-03-06T19:52:14.690Z,99591.34
2023-03-06T19:54:46.846Z,99556.47
2023-03-06T19:57:16.847Z,99596.88
2023-03-06T19:59:46.596Z,99520.66
2023-03-06T20:02:19.595Z,99572.63
2023-03-06T20:04:49.542Z,99549.47
2023-03-06T20:07:19.182Z,99562.53
2023-03-06T20:09:48.916Z,99579.19
2023-03-06T20:12:18.711Z,99547.91
2023-03-06T20:14:48.754Z,99558.06
2023-03-06T20:17:20.960Z,99564.81
2023-03-06T20:19:50.644Z,99542.91
2023-03-06T20:22:21.231Z,99556.84
2023-03-06T20:24:50.918Z,99552.34
2023-03-06T20:27:20.607Z,99565.13
2023-03-06T20:29:50.225Z,99561.56
2023-03-06T20:32:22.532Z,99541.25
2023-03-06T20:34:52.195Z,99485.31
2023-03-06T20:37:21.868Z,99550.28
2023-03-06T20:39:52.707Z,99529.00
2023-03-06T20:42:22.356Z,99551.78
2023-03-06T20:44:51.967Z,99487.09
2023-03-06T20:47:24.242Z,99532.19
2023-03-06T20:49:53.882Z,99519.59
2023-03-06T20:52:23.525Z,99509.75
2023-03-06T20:54:53.153Z,99524.47
2023-03-06T20:57:22.767Z,99510.56
2023-03-06T20:59:52.396Z,99496.97
2023-03-06T21:02:24.657Z,99504.59
2023-03-06T21:04:54.412Z,99507.22
2023-03-06T21:07:24.077Z,99515.41
2023-03-06T21:09:53.767Z,99460.81
2023-03-06T21:12:23.459Z,99503.91
2023-03-06T21:14:53.044Z,99491.78
2023-03-06T21:17:25.587Z,99498.69
2023-03-06T21:19:55.406Z,99496.16
2023-03-06T21:22:25.059Z,99398.97
2023-03-06T21:24:54.670Z,99404.13
2023-03-06T21:27:24.270Z,99459.00
2023-03-06T21:29:53.951Z,99456.94
2023-03-06T21:32:26.330Z,99460.63
2023-03-06T21:34:56.007Z,99380.56
2023-03-06T21:37:25.690Z,99397.13
2023-03-06T21:39:55.499Z,99429.19
2023-03-06T21:42:25.096Z,99421.28
2023-03-06T21:44:54.734Z,99411.94
2023-03-06T21:47:27.018Z,99437.13
2023-03-06T21:49:56.616Z,99389.44
2023-03-06T21:52:26.596Z,99399.56
2023-03-06T21:54:56.383Z,99416.59
2023-03-06T21:57:26.076Z,99397.91
2023-03-06T21:59:55.697Z,99406.81
2023-03-06T22:02:27.988Z,99400.22
2023-03-06T22:04:57.817Z,99366.44
2023-03-06T22:07:28.435Z,99339.19
2023-03-06T22:09:58.268Z,99368.34
2023-03-06T22:12:27.983Z,99356.47
2023-03-06T22:14:57.630Z,99309.31
2023-03-06T22:17:29.913Z,99348.84
2023-03-06T22:19:59.677Z,99335.94
2023-03-06T22:22:29.540Z,99315.75
2023-03-06T22:24:59.258Z,99345.66
2023-03-06T22:27:31.139Z,99316.66
2023-03-06T22:30:00.749Z,99320.16
2023-03-06T22:32:33.365Z,99301.69
2023-03-06T22:35:03.195Z,99326.19
2023-03-06T22:37:33.990Z,99316.97
2023-03-06T22:40:03.622Z,99281.91
2023-03-06T22:42:33.262Z,99283.84
2023-03-06T22:45:02.956Z,99287.56
2023-03-06T22:47:38.406Z,99275.66
2023-03-06T22:50:08.937Z,99280.13
2023-03-06T22:52:38.587Z,99284.38
2023-03-06T22:55:09.425Z,99250.22
2023-03-06T22:57:39.047Z,99235.16
2023-03-06T23:00:11.110Z,99271.13
2023-03-06T23:02:43.968Z,99233.56
2023-03-06T23:05:13.960Z,99256.41
2023-03-06T23:07:43.569Z,99212.16
2023-03-06T23:10:14.119Z,99214.22
2023-03-06T23:13:03.280Z,99231.31
2023-03-06T23:15:51.863Z,99221.03
2023-03-06T23:18:44.088Z,99225.25
2023-03-06T23:21:32.395Z,99144.06
2023-03-06T23:24:21.050Z,99212.56
2023-03-06T23:26:50.687Z,99190.50
2023-03-06T23:29:20.309Z,99193.19
2023-03-06T23:31:49.878Z,99182.03
2023-03-06T23:34:22.078Z,99204.38
2023-03-06T23:36:51.768Z,99136.44
2023-03-06T23:39:22.615Z,99131.97
2023-03-06T23:41:52.263Z,99190.72
2023-03-06T23:44:21.868Z,99149.94
2023-03-06T23:46:51.463Z,99106.69
2023-03-06T23:49:23.818Z,99126.41
2023-03-06T23:51:53.506Z,99143.50
2023-03-06T23:54:23.131Z,99133.06
2023-03-06T23:56:52.952Z,99137.28
2023-03-06T23:59:22.833Z,99105.53
